createdAt,value
2018-06-19T00:02:15.241Z,16.20
2018-06-19T00:07:14.196Z,16.20
2018-06-19T00:12:13.171Z,16.30
2018-06-19T00:14:42.831Z,16.30
2018-06-19T00:17:12.487Z,17.70
2018-06-19T00:24:42.767Z,16.30
2018-06-19T00:27:12.409Z,16.40
2018-06-19T00:37:09.649Z,16.30
2018-06-19T00:42:08.517Z,16.40
2018-06-19T00:44:38.161Z,16.40
2018-06-19T00:49:36.967Z,16.40
2018-06-19T00:52:06.676Z,16.30
2018-06-19T00:54:36.343Z,16.30
2018-06-19T00:59:35.221Z,16.40
2018-06-19T01:04:34.113Z,16.30
2018-06-19T01:17:00.645Z,16.40
2018-06-19T01:24:28.741Z,16.60
2018-06-19T01:26:58.497Z,16.60
2018-06-19T01:34:26.499Z,16.70
2018-06-19T01:36:56.135Z,16.80
2018-06-19T01:42:00.443Z,16.70
2018-06-19T01:44:30.099Z,16.60
2018-06-19T01:46:59.801Z,16.60
2018-06-19T01:49:29.433Z,16.70
2018-06-19T01:54:28.311Z,16.70
2018-06-19T01:59:27.148Z,16.60
2018-06-19T02:01:56.859Z,16.70
2018-06-19T02:09:24.909Z,16.70
2018-06-19T02:11:54.565Z,16.70
2018-06-19T02:19:22.628Z,16.70
2018-06-19T02:21:52.276Z,16.70
2018-06-19T02:26:51.121Z,16.80
2018-06-19T02:31:49.975Z,16.90
2018-06-19T02:36:48.815Z,16.80
2018-06-19T02:41:47.706Z,16.90
2018-06-19T02:44:17.347Z,16.90
2018-06-19T02:46:46.999Z,17.00
2018-06-19T02:51:45.896Z,17.00
2018-06-19T02:54:15.517Z,17.00
2018-06-19T02:59:20.115Z,17.00
2018-06-19T03:01:49.889Z,17.00
2018-06-19T03:11:48.215Z,16.80
2018-06-19T03:21:47.303Z,16.90
2018-06-19T03:24:16.974Z,16.90
2018-06-19T03:29:15.745Z,16.80
2018-06-19T03:46:40.801Z,17.20
2018-06-19T03:54:08.814Z,17.30
2018-06-19T03:59:07.665Z,17.20
2018-06-19T04:01:37.317Z,17.20
2018-06-19T04:06:36.169Z,17.30
2018-06-19T04:09:07.843Z,17.30
2018-06-19T04:11:38.220Z,17.40
2018-06-19T04:14:08.247Z,17.30
2018-06-19T04:16:38.141Z,17.40
2018-06-19T04:21:36.994Z,17.50
2018-06-19T04:24:06.619Z,17.40
2018-06-19T04:29:05.457Z,17.60
2018-06-19T04:31:35.112Z,17.50
2018-06-19T04:34:04.826Z,17.60
2018-06-19T04:46:32.015Z,17.40
2018-06-19T04:49:01.663Z,17.40
2018-06-19T04:56:29.715Z,17.80
2018-06-19T04:58:59.349Z,17.90
2018-06-19T05:06:27.371Z,17.90
2018-06-19T05:08:57.000Z,17.70
2018-06-19T05:11:26.744Z,17.80
2018-06-19T05:13:56.436Z,17.70
2018-06-19T05:18:55.635Z,17.60
2018-06-19T05:21:25.283Z,17.60
2018-06-19T05:23:54.903Z,17.60
2018-06-19T05:28:53.853Z,17.60
2018-06-19T05:31:23.758Z,17.80
2018-06-19T05:38:52.263Z,17.70
2018-06-19T05:41:21.951Z,17.80
2018-06-19T05:56:18.537Z,18.00
2018-06-19T06:01:17.387Z,18.20
2018-06-19T06:11:14.959Z,18.40
2018-06-19T06:18:42.965Z,18.60
2018-06-19T06:31:10.075Z,18.80
2018-06-19T06:33:39.725Z,18.70
2018-06-19T06:36:09.345Z,18.80
2018-06-19T06:38:38.991Z,18.60
2018-06-19T06:43:37.802Z,18.50
2018-06-19T06:48:36.681Z,18.00
2018-06-19T06:51:06.344Z,17.90
2018-06-19T06:56:06.614Z,17.60
2018-06-19T06:58:36.344Z,17.50
2018-06-19T07:06:04.647Z,17.40
2018-06-19T07:08:34.251Z,17.30
2018-06-19T07:13:33.109Z,17.30
2018-06-19T07:16:02.684Z,17.30
2018-06-19T07:21:01.489Z,17.30
2018-06-19T07:33:28.185Z,17.60
2018-06-19T07:40:56.415Z,18.00
2018-06-19T07:45:55.263Z,18.10
2018-06-19T07:48:24.899Z,18.20
2018-06-19T07:50:54.615Z,18.30
2018-06-19T08:00:51.847Z,18.60
2018-06-19T08:05:50.741Z,18.90
2018-06-19T08:08:20.427Z,18.90
2018-06-19T08:18:17.773Z,19.40
2018-06-19T08:28:15.611Z,19.20
2018-06-19T08:33:14.432Z,19.00
2018-06-19T08:40:42.556Z,18.60
2018-06-19T08:48:10.741Z,18.60
2018-06-19T08:50:40.369Z,18.60
2018-06-19T08:55:39.197Z,19.10
2018-06-19T08:58:08.869Z,19.30
2018-06-19T09:03:07.738Z,19.40
2018-06-19T09:05:37.382Z,19.20
2018-06-19T09:08:07.071Z,19.30
2018-06-19T09:13:05.954Z,19.20
2018-06-19T09:15:35.639Z,19.30
2018-06-19T09:18:05.584Z,19.40
2018-06-19T09:20:35.215Z,19.60
2018-06-19T09:28:03.414Z,19.80
2018-06-19T09:30:33.073Z,19.80
2018-06-19T09:35:32.151Z,19.80
2018-06-19T09:47:58.541Z,19.90
2018-06-19T09:57:55.822Z,19.70
2018-06-19T10:03:00.806Z,19.80
2018-06-19T10:05:31.485Z,19.80
2018-06-19T10:08:01.627Z,20.00
2018-06-19T10:15:30.157Z,19.60
2018-06-19T10:22:58.191Z,19.60
2018-06-19T10:25:28.334Z,19.70
2018-06-19T10:27:58.577Z,19.70
2018-06-19T10:35:36.020Z,20.80
2018-06-19T10:45:33.283Z,21.10
2018-06-19T10:50:32.131Z,21.40
2018-06-19T11:00:29.381Z,21.80
2018-06-19T11:02:59.018Z,21.80
2018-06-19T11:10:27.562Z,21.80
2018-06-19T11:12:57.246Z,22.00
2018-06-19T11:15:26.903Z,22.10
2018-06-19T11:17:56.564Z,22.00
2018-06-19T11:22:55.423Z,21.80
2018-06-19T11:27:54.328Z,21.50
2018-06-19T11:35:22.635Z,21.30
2018-06-19T11:45:21.085Z,20.90
2018-06-19T11:47:50.798Z,21.10
2018-06-19T11:52:49.700Z,21.30
2018-06-19T12:05:16.241Z,21.90
2018-06-19T12:12:45.095Z,22.10
2018-06-19T12:15:14.757Z,22.10
2018-06-19T12:17:44.511Z,21.90
2018-06-19T12:25:12.661Z,21.60
2018-06-19T12:30:11.483Z,21.90
2018-06-19T12:35:10.373Z,22.00
2018-06-19T12:37:40.054Z,21.70
2018-06-19T12:47:37.575Z,21.10
2018-06-19T12:52:20.949Z,21.10
2018-06-19T12:55:02.060Z,21.30
2018-06-19T13:02:30.628Z,21.80
2018-06-19T13:22:28.752Z,22.30
2018-06-19T13:25:00.823Z,22.10
2018-06-19T13:27:30.489Z,22.30
2018-06-19T13:35:10.539Z,23.20
2018-06-19T13:37:40.300Z,23.10
2018-06-19T13:48:52.773Z,22.60
2018-06-19T13:57:42.700Z,23.50
2018-06-19T14:00:18.500Z,23.80
2018-06-19T14:08:10.219Z,23.40
2018-06-19T14:13:14.577Z,23.00
2018-06-19T14:23:15.019Z,22.90
2018-06-19T14:30:43.097Z,23.40
2018-06-19T14:35:41.917Z,23.70
2018-06-19T14:48:08.499Z,24.40
2018-06-19T14:53:07.350Z,23.60
2018-06-19T14:55:37.018Z,23.50
2018-06-19T15:05:35.925Z,22.90
2018-06-19T15:15:33.860Z,23.00
2018-06-19T15:18:03.526Z,23.10
2018-06-19T15:20:33.169Z,23.30
2018-06-19T15:28:02.192Z,23.60
2018-06-19T15:33:03.964Z,24.10
2018-06-19T15:35:33.584Z,24.30
2018-06-19T15:38:03.232Z,24.40
2018-06-19T15:45:31.360Z,23.90
2018-06-19T15:52:59.706Z,23.50
2018-06-19T15:55:29.384Z,23.30
2018-06-19T15:57:59.189Z,23.10
2018-06-19T16:05:27.328Z,22.80
2018-06-19T16:08:02.297Z,22.80
2018-06-19T16:10:32.060Z,22.80
2018-06-19T16:18:00.201Z,22.70
2018-06-19T16:22:59.041Z,22.70
2018-06-19T16:25:28.782Z,22.70
2018-06-19T16:27:58.657Z,22.80
2018-06-19T16:35:27.086Z,22.70
2018-06-19T16:45:24.436Z,22.60
2018-06-19T16:50:23.262Z,22.50
2018-06-19T17:00:20.654Z,22.70
2018-06-19T17:02:50.408Z,22.60
2018-06-19T17:05:20.072Z,22.60
2018-06-19T17:07:49.746Z,22.50
2018-06-19T17:10:19.424Z,22.60
2018-06-19T17:15:18.333Z,22.50
2018-06-19T17:17:47.962Z,22.40
2018-06-19T17:22:46.853Z,22.60
2018-06-19T17:40:11.744Z,22.20
2018-06-19T17:45:10.610Z,22.20
2018-06-19T17:52:38.687Z,22.00
2018-06-19T17:55:08.360Z,21.80
2018-06-19T18:05:06.226Z,21.70
2018-06-19T18:07:35.962Z,21.70
2018-06-19T18:15:04.032Z,21.80
2018-06-19T18:22:32.074Z,21.90
2018-06-19T18:34:58.585Z,21.60
2018-06-19T18:39:57.502Z,21.50
2018-06-19T18:42:27.250Z,21.50
2018-06-19T18:44:57.394Z,21.40
2018-06-19T18:47:27.025Z,21.50
2018-06-19T18:49:56.679Z,21.40
2018-06-19T18:52:26.416Z,21.30
2018-06-19T18:54:56.080Z,21.40
2018-06-19T19:04:53.384Z,21.30
2018-06-19T19:09:57.655Z,21.20
2018-06-19T19:25:04.145Z,20.90
2018-06-19T19:35:08.476Z,21.00
2018-06-19T19:37:43.514Z,20.90
2018-06-19T19:40:13.214Z,20.90
2018-06-19T19:55:14.374Z,21.00
2018-06-19T21:47:24.224Z,19.70
2018-06-19T21:52:23.324Z,19.50
2018-06-19T21:54:53.124Z,19.40
2018-06-19T22:02:26.698Z,19.10
2018-06-19T22:04:56.356Z,19.00
2018-06-19T22:07:26.015Z,18.80
2018-06-19T22:17:23.312Z,18.90
2018-06-19T22:22:22.186Z,18.90
2018-06-19T22:27:21.012Z,18.80
2018-06-19T22:34:49.007Z,18.70
2018-06-19T22:37:18.729Z,18.60
2018-06-19T22:42:18.857Z,18.60
2018-06-19T22:44:48.547Z,18.50
2018-06-19T22:54:45.843Z,18.50
2018-06-19T22:59:44.668Z,18.40
2018-06-19T23:02:14.373Z,18.30
2018-06-19T23:04:44.039Z,18.30
2018-06-19T23:14:48.014Z,18.20
2018-06-19T23:19:46.919Z,18.20
2018-06-19T23:22:16.656Z,18.10
2018-06-19T23:24:46.242Z,18.00
2018-06-19T23:29:45.064Z,18.00
2018-06-19T23:34:43.855Z,18.00
2018-06-19T23:39:42.655Z,17.90
2018-06-19T23:42:12.315Z,17.90
2018-06-19T23:52:09.479Z,17.70
2018-06-19T23:54:39.124Z,17.70
2018-06-19T23:59:37.933Z,17.70
